sensor_id;sensor_type;location;lat;lon;timestamp;P1;durP1;ratioP1;P2;durP2;ratioP2
69226;SDS011;56334;52.398;7.552;2023-04-24T00:01:56;6.28;;;2.03;;
69226;SDS011;56334;52.398;7.552;2023-04-24T00:04:23;6.90;;;2.20;;
69226;SDS011;56334;52.398;7.552;2023-04-24T00:06:51;5.57;;;2.03;;
69226;SDS011;56334;52.398;7.552;2023-04-24T00:09:21;7.57;;;2.33;;
69226;SDS011;56334;52.398;7.552;2023-04-24T00:11:54;7.10;;;2.60;;
69226;SDS011;56334;52.398;7.552;2023-04-24T00:14:21;6.60;;;2.72;;
69226;SDS011;56334;52.398;7.552;2023-04-24T00:16:47;9.10;;;3.10;;
69226;SDS011;56334;52.398;7.552;2023-04-24T00:19:13;8.52;;;3.67;;
69226;SDS011;56334;52.398;7.552;2023-04-24T00:21:39;8.43;;;3.60;;
69226;SDS011;56334;52.398;7.552;2023-04-24T00:29:01;8.57;;;2.97;;
69226;SDS011;56334;52.398;7.552;2023-04-24T00:31:27;7.50;;;2.83;;
69226;SDS011;56334;52.398;7.552;2023-04-24T00:33:53;7.97;;;3.10;;
69226;SDS011;56334;52.398;7.552;2023-04-24T00:36:20;5.63;;;1.92;;
69226;SDS011;56334;52.398;7.552;2023-04-24T00:38:46;7.18;;;2.72;;
69226;SDS011;56334;52.398;7.552;2023-04-24T00:41:12;8.90;;;3.00;;
69226;SDS011;56334;52.398;7.552;2023-04-24T00:43:38;7.47;;;2.97;;
69226;SDS011;56334;52.398;7.552;2023-04-24T00:46:04;7.35;;;2.70;;
69226;SDS011;56334;52.398;7.552;2023-04-24T00:48:30;11.02;;;2.58;;
69226;SDS011;56334;52.398;7.552;2023-04-24T00:50:57;8.77;;;2.60;;
69226;SDS011;56334;52.398;7.552;2023-04-24T00:53:23;8.75;;;2.83;;
69226;SDS011;56334;52.398;7.552;2023-04-24T00:55:50;7.63;;;2.90;;
69226;SDS011;56334;52.398;7.552;2023-04-24T00:58:16;8.40;;;3.00;;
69226;SDS011;56334;52.398;7.552;2023-04-24T01:00:43;8.18;;;2.83;;
69226;SDS011;56334;52.398;7.552;2023-04-24T01:05:37;10.30;;;2.85;;
69226;SDS011;56334;52.398;7.552;2023-04-24T01:08:03;7.88;;;2.60;;
69226;SDS011;56334;52.398;7.552;2023-04-24T01:10:29;8.35;;;2.78;;
69226;SDS011;56334;52.398;7.552;2023-04-24T01:15:23;7.30;;;2.25;;
69226;SDS011;56334;52.398;7.552;2023-04-24T01:17:49;6.95;;;2.20;;
69226;SDS011;56334;52.398;7.552;2023-04-24T01:20:15;7.85;;;2.58;;
69226;SDS011;56334;52.398;7.552;2023-04-24T01:22:41;6.78;;;2.30;;
69226;SDS011;56334;52.398;7.552;2023-04-24T01:25:08;7.43;;;2.50;;
69226;SDS011;56334;52.398;7.552;2023-04-24T01:27:34;7.03;;;2.65;;
69226;SDS011;56334;52.398;7.552;2023-04-24T01:30:00;6.65;;;2.03;;
69226;SDS011;56334;52.398;7.552;2023-04-24T01:32:27;7.60;;;2.65;;
69226;SDS011;56334;52.398;7.552;2023-04-24T01:34:53;9.00;;;2.78;;
69226;SDS011;56334;52.398;7.552;2023-04-24T01:37:21;8.32;;;2.97;;
69226;SDS011;56334;52.398;7.552;2023-04-24T01:39:47;8.65;;;3.00;;
69226;SDS011;56334;52.398;7.552;2023-04-24T01:42:13;8.20;;;3.00;;
69226;SDS011;56334;52.398;7.552;2023-04-24T01:44:40;7.25;;;2.67;;
69226;SDS011;56334;52.398;7.552;2023-04-24T01:47:06;8.88;;;3.25;;
69226;SDS011;56334;52.398;7.552;2023-04-24T01:49:32;7.70;;;2.75;;
69226;SDS011;56334;52.398;7.552;2023-04-24T01:51:59;8.30;;;3.00;;
69226;SDS011;56334;52.398;7.552;2023-04-24T01:54:26;8.32;;;2.97;;
69226;SDS011;56334;52.398;7.552;2023-04-24T01:56:52;7.32;;;2.75;;
69226;SDS011;56334;52.398;7.552;2023-04-24T01:59:18;8.85;;;2.78;;
69226;SDS011;56334;52.398;7.552;2023-04-24T02:01:46;7.50;;;2.70;;
69226;SDS011;56334;52.398;7.552;2023-04-24T02:04:12;7.43;;;2.60;;
69226;SDS011;56334;52.398;7.552;2023-04-24T02:06:39;7.95;;;2.55;;
69226;SDS011;56334;52.398;7.552;2023-04-24T02:09:05;6.82;;;2.63;;
69226;SDS011;56334;52.398;7.552;2023-04-24T02:11:34;7.93;;;3.03;;
69226;SDS011;56334;52.398;7.552;2023-04-24T02:14:00;8.38;;;2.60;;
69226;SDS011;56334;52.398;7.552;2023-04-24T02:16:27;7.38;;;2.05;;
69226;SDS011;56334;52.398;7.552;2023-04-24T02:18:57;8.60;;;3.28;;
69226;SDS011;56334;52.398;7.552;2023-04-24T02:21:23;7.82;;;2.97;;
69226;SDS011;56334;52.398;7.552;2023-04-24T02:23:49;8.45;;;3.22;;
69226;SDS011;56334;52.398;7.552;2023-04-24T02:26:16;10.02;;;4.28;;
69226;SDS011;56334;52.398;7.552;2023-04-24T02:31:09;10.35;;;3.97;;
69226;SDS011;56334;52.398;7.552;2023-04-24T02:33:35;9.80;;;3.85;;
69226;SDS011;56334;52.398;7.552;2023-04-24T02:36:02;11.43;;;3.97;;
69226;SDS011;56334;52.398;7.552;2023-04-24T02:38:28;10.90;;;4.30;;
69226;SDS011;56334;52.398;7.552;2023-04-24T02:40:54;11.00;;;4.25;;
69226;SDS011;56334;52.398;7.552;2023-04-24T02:43:20;9.73;;;3.88;;
69226;SDS011;56334;52.398;7.552;2023-04-24T02:45:46;10.02;;;3.78;;
69226;SDS011;56334;52.398;7.552;2023-04-24T02:48:13;12.15;;;4.93;;
69226;SDS011;56334;52.398;7.552;2023-04-24T02:50:39;11.27;;;4.03;;
69226;SDS011;56334;52.398;7.552;2023-04-24T02:53:05;11.82;;;4.15;;
69226;SDS011;56334;52.398;7.552;2023-04-24T02:55:31;10.98;;;3.83;;
69226;SDS011;56334;52.398;7.552;2023-04-24T02:57:57;10.13;;;4.25;;
69226;SDS011;56334;52.398;7.552;2023-04-24T03:00:23;8.18;;;3.42;;
69226;SDS011;56334;52.398;7.552;2023-04-24T03:02:49;11.00;;;4.25;;
69226;SDS011;56334;52.398;7.552;2023-04-24T03:05:15;9.00;;;3.42;;
69226;SDS011;56334;52.398;7.552;2023-04-24T03:07:41;10.85;;;4.00;;
69226;SDS011;56334;52.398;7.552;2023-04-24T03:10:07;9.45;;;4.28;;
69226;SDS011;56334;52.398;7.552;2023-04-24T03:12:34;10.63;;;4.32;;
69226;SDS011;56334;52.398;7.552;2023-04-24T03:15:01;10.65;;;3.85;;
69226;SDS011;56334;52.398;7.552;2023-04-24T03:17:27;10.57;;;4.13;;
69226;SDS011;56334;52.398;7.552;2023-04-24T03:19:53;10.32;;;4.47;;
69226;SDS011;56334;52.398;7.552;2023-04-24T03:22:19;12.73;;;4.35;;
69226;SDS011;56334;52.398;7.552;2023-04-24T03:24:45;11.77;;;4.45;;
69226;SDS011;56334;52.398;7.552;2023-04-24T03:27:11;12.80;;;4.40;;
69226;SDS011;56334;52.398;7.552;2023-04-24T03:29:39;10.75;;;4.40;;
69226;SDS011;56334;52.398;7.552;2023-04-24T03:32:05;13.00;;;5.03;;
69226;SDS011;56334;52.398;7.552;2023-04-24T03:34:31;10.80;;;4.90;;
69226;SDS011;56334;52.398;7.552;2023-04-24T03:36:57;12.32;;;5.00;;
69226;SDS011;56334;52.398;7.552;2023-04-24T03:39:23;10.20;;;3.50;;
69226;SDS011;56334;52.398;7.552;2023-04-24T03:41:50;13.02;;;5.10;;
69226;SDS011;56334;52.398;7.552;2023-04-24T03:44:19;13.57;;;5.05;;
69226;SDS011;56334;52.398;7.552;2023-04-24T03:46:45;10.63;;;4.57;;
69226;SDS011;56334;52.398;7.552;2023-04-24T03:49:11;13.48;;;5.50;;
69226;SDS011;56334;52.398;7.552;2023-04-24T03:51:37;15.32;;;6.32;;
69226;SDS011;56334;52.398;7.552;2023-04-24T03:54:03;13.35;;;5.82;;
69226;SDS011;56334;52.398;7.552;2023-04-24T03:56:31;15.43;;;7.43;;
69226;SDS011;56334;52.398;7.552;2023-04-24T03:58:57;13.95;;;6.28;;
69226;SDS011;56334;52.398;7.552;2023-04-24T04:01:23;14.38;;;6.70;;
69226;SDS011;56334;52.398;7.552;2023-04-24T04:03:49;15.80;;;6.32;;
69226;SDS011;56334;52.398;7.552;2023-04-24T04:06:15;12.50;;;5.53;;
69226;SDS011;56334;52.398;7.552;2023-04-24T04:08:41;14.02;;;5.75;;
69226;SDS011;56334;52.398;7.552;2023-04-24T04:11:07;14.38;;;5.65;;
69226;SDS011;56334;52.398;7.552;2023-04-24T04:13:33;16.25;;;6.85;;
69226;SDS011;56334;52.398;7.552;2023-04-24T04:16:00;15.32;;;7.50;;
69226;SDS011;56334;52.398;7.552;2023-04-24T04:18:26;17.13;;;5.85;;
69226;SDS011;56334;52.398;7.552;2023-04-24T04:20:52;16.13;;;6.72;;
69226;SDS011;56334;52.398;7.552;2023-04-24T04:23:18;14.95;;;5.90;;
69226;SDS011;56334;52.398;7.552;2023-04-24T04:25:44;16.48;;;6.95;;
69226;SDS011;56334;52.398;7.552;2023-04-24T04:28:11;14.75;;;5.53;;
69226;SDS011;56334;52.398;7.552;2023-04-24T04:30:37;16.33;;;6.60;;
69226;SDS011;56334;52.398;7.552;2023-04-24T04:33:05;19.35;;;7.50;;
69226;SDS011;56334;52.398;7.552;2023-04-24T04:35:31;17.95;;;6.70;;
69226;SDS011;56334;52.398;7.552;2023-04-24T04:37:57;18.00;;;7.45;;
69226;SDS011;56334;52.398;7.552;2023-04-24T04:40:23;16.42;;;7.40;;
69226;SDS011;56334;52.398;7.552;2023-04-24T04:42:49;18.23;;;7.65;;
69226;SDS011;56334;52.398;7.552;2023-04-24T04:45:17;17.92;;;7.22;;
69226;SDS011;56334;52.398;7.552;2023-04-24T04:47:44;20.63;;;7.82;;
69226;SDS011;56334;52.398;7.552;2023-04-24T04:50:10;20.95;;;7.75;;
69226;SDS011;56334;52.398;7.552;2023-04-24T04:52:36;17.98;;;7.57;;
69226;SDS011;56334;52.398;7.552;2023-04-24T04:55:02;18.65;;;7.80;;
69226;SDS011;56334;52.398;7.552;2023-04-24T04:57:28;20.92;;;8.25;;
69226;SDS011;56334;52.398;7.552;2023-04-24T04:59:55;17.17;;;7.70;;
69226;SDS011;56334;52.398;7.552;2023-04-24T05:02:21;20.73;;;7.60;;
69226;SDS011;56334;52.398;7.552;2023-04-24T05:04:47;17.20;;;7.97;;
69226;SDS011;56334;52.398;7.552;2023-04-24T05:07:13;16.45;;;7.50;;
69226;SDS011;56334;52.398;7.552;2023-04-24T05:09:39;17.83;;;7.93;;
69226;SDS011;56334;52.398;7.552;2023-04-24T05:12:06;17.48;;;7.85;;
69226;SDS011;56334;52.398;7.552;2023-04-24T05:14:32;20.88;;;8.00;;
69226;SDS011;56334;52.398;7.552;2023-04-24T05:16:58;14.77;;;6.38;;
69226;SDS011;56334;52.398;7.552;2023-04-24T05:19:25;17.80;;;7.13;;
69226;SDS011;56334;52.398;7.552;2023-04-24T05:21:51;21.75;;;7.90;;
69226;SDS011;56334;52.398;7.552;2023-04-24T05:24:17;17.83;;;7.57;;
69226;SDS011;56334;52.398;7.552;2023-04-24T05:26:43;17.02;;;6.63;;
69226;SDS011;56334;52.398;7.552;2023-04-24T05:29:09;15.07;;;5.90;;
69226;SDS011;56334;52.398;7.552;2023-04-24T05:31:35;18.08;;;7.55;;
69226;SDS011;56334;52.398;7.552;2023-04-24T05:34:01;18.00;;;8.23;;
69226;SDS011;56334;52.398;7.552;2023-04-24T05:36:27;18.38;;;8.18;;
69226;SDS011;56334;52.398;7.552;2023-04-24T05:38:53;19.02;;;8.35;;
69226;SDS011;56334;52.398;7.552;2023-04-24T05:41:19;18.58;;;8.32;;
69226;SDS011;56334;52.398;7.552;2023-04-24T05:43:46;20.90;;;8.70;;
69226;SDS011;56334;52.398;7.552;2023-04-24T05:46:12;17.05;;;7.18;;
69226;SDS011;56334;52.398;7.552;2023-04-24T05:48:38;17.00;;;7.05;;
69226;SDS011;56334;52.398;7.552;2023-04-24T05:51:04;19.40;;;9.02;;
69226;SDS011;56334;52.398;7.552;2023-04-24T05:53:30;20.70;;;8.80;;
69226;SDS011;56334;52.398;7.552;2023-04-24T05:55:56;22.40;;;8.65;;
69226;SDS011;56334;52.398;7.552;2023-04-24T05:58:22;18.10;;;7.63;;
69226;SDS011;56334;52.398;7.552;2023-04-24T06:00:48;20.65;;;8.48;;
69226;SDS011;56334;52.398;7.552;2023-04-24T06:03:14;21.02;;;8.63;;
69226;SDS011;56334;52.398;7.552;2023-04-24T06:05:41;18.23;;;8.10;;
69226;SDS011;56334;52.398;7.552;2023-04-24T06:08:07;17.30;;;6.95;;
69226;SDS011;56334;52.398;7.552;2023-04-24T06:10:33;21.70;;;8.98;;
69226;SDS011;56334;52.398;7.552;2023-04-24T06:12:59;17.98;;;7.03;;
69226;SDS011;56334;52.398;7.552;2023-04-24T06:15:29;23.08;;;8.40;;
69226;SDS011;56334;52.398;7.552;2023-04-24T06:17:58;18.95;;;7.65;;
69226;SDS011;56334;52.398;7.552;2023-04-24T06:20:24;18.25;;;7.97;;
69226;SDS011;56334;52.398;7.552;2023-04-24T06:22:50;15.75;;;6.85;;
69226;SDS011;56334;52.398;7.552;2023-04-24T06:25:16;17.42;;;6.53;;
69226;SDS011;56334;52.398;7.552;2023-04-24T06:27:42;19.73;;;8.75;;
69226;SDS011;56334;52.398;7.552;2023-04-24T06:30:09;21.83;;;8.20;;
69226;SDS011;56334;52.398;7.552;2023-04-24T06:32:35;16.27;;;7.47;;
69226;SDS011;56334;52.398;7.552;2023-04-24T06:35:01;20.65;;;8.73;;
69226;SDS011;56334;52.398;7.552;2023-04-24T06:37:27;18.60;;;7.95;;
69226;SDS011;56334;52.398;7.552;2023-04-24T06:39:53;18.88;;;8.23;;
69226;SDS011;56334;52.398;7.552;2023-04-24T06:42:19;17.75;;;8.32;;
69226;SDS011;56334;52.398;7.552;2023-04-24T06:44:49;16.88;;;7.32;;
69226;SDS011;56334;52.398;7.552;2023-04-24T06:47:15;18.05;;;7.57;;
69226;SDS011;56334;52.398;7.552;2023-04-24T06:49:41;17.75;;;8.05;;
69226;SDS011;56334;52.398;7.552;2023-04-24T06:52:08;17.98;;;7.82;;
69226;SDS011;56334;52.398;7.552;2023-04-24T06:54:34;18.50;;;7.90;;
69226;SDS011;56334;52.398;7.552;2023-04-24T06:57:00;18.02;;;7.22;;
69226;SDS011;56334;52.398;7.552;2023-04-24T06:59:28;15.90;;;6.40;;
69226;SDS011;56334;52.398;7.552;2023-04-24T07:01:54;16.23;;;7.10;;
69226;SDS011;56334;52.398;7.552;2023-04-24T07:04:21;16.77;;;6.93;;
69226;SDS011;56334;52.398;7.552;2023-04-24T07:06:48;18.52;;;8.82;;
69226;SDS011;56334;52.398;7.552;2023-04-24T07:09:14;18.35;;;8.18;;
69226;SDS011;56334;52.398;7.552;2023-04-24T07:11:44;15.68;;;6.80;;
69226;SDS011;56334;52.398;7.552;2023-04-24T07:14:10;18.35;;;6.95;;
69226;SDS011;56334;52.398;7.552;2023-04-24T07:16:37;18.23;;;7.65;;
69226;SDS011;56334;52.398;7.552;2023-04-24T07:19:03;16.80;;;7.38;;
69226;SDS011;56334;52.398;7.552;2023-04-24T07:21:29;19.42;;;8.40;;
69226;SDS011;56334;52.398;7.552;2023-04-24T07:23:57;16.75;;;7.30;;
69226;SDS011;56334;52.398;7.552;2023-04-24T07:26:23;15.45;;;6.47;;
69226;SDS011;56334;52.398;7.552;2023-04-24T07:28:49;15.18;;;6.60;;
69226;SDS011;56334;52.398;7.552;2023-04-24T07:31:15;15.35;;;6.45;;
69226;SDS011;56334;52.398;7.552;2023-04-24T07:33:41;13.82;;;5.90;;
69226;SDS011;56334;52.398;7.552;2023-04-24T07:36:07;13.93;;;5.22;;
69226;SDS011;56334;52.398;7.552;2023-04-24T07:38:40;12.77;;;5.57;;
69226;SDS011;56334;52.398;7.552;2023-04-24T07:41:06;13.93;;;6.22;;
69226;SDS011;56334;52.398;7.552;2023-04-24T07:43:32;15.10;;;6.53;;
69226;SDS011;56334;52.398;7.552;2023-04-24T07:45:58;14.00;;;5.55;;
69226;SDS011;56334;52.398;7.552;2023-04-24T07:50:56;11.80;;;4.95;;
69226;SDS011;56334;52.398;7.552;2023-04-24T07:53:22;12.10;;;5.20;;
69226;SDS011;56334;52.398;7.552;2023-04-24T07:55:48;12.40;;;5.05;;
69226;SDS011;56334;52.398;7.552;2023-04-24T07:58:14;11.98;;;4.57;;
69226;SDS011;56334;52.398;7.552;2023-04-24T08:00:40;11.68;;;4.43;;
69226;SDS011;56334;52.398;7.552;2023-04-24T08:03:06;11.80;;;4.28;;
69226;SDS011;56334;52.398;7.552;2023-04-24T08:05:32;11.82;;;5.15;;
69226;SDS011;56334;52.398;7.552;2023-04-24T08:07:58;13.05;;;4.60;;
69226;SDS011;56334;52.398;7.552;2023-04-24T08:10:24;9.35;;;3.90;;
69226;SDS011;56334;52.398;7.552;2023-04-24T08:12:51;11.68;;;4.68;;
69226;SDS011;56334;52.398;7.552;2023-04-24T08:15:18;10.73;;;4.40;;
69226;SDS011;56334;52.398;7.552;2023-04-24T08:17:44;10.57;;;3.83;;
69226;SDS011;56334;52.398;7.552;2023-04-24T08:20:10;10.82;;;4.80;;
69226;SDS011;56334;52.398;7.552;2023-04-24T08:22:39;12.07;;;4.90;;
69226;SDS011;56334;52.398;7.552;2023-04-24T08:25:06;10.18;;;4.18;;
69226;SDS011;56334;52.398;7.552;2023-04-24T08:27:33;11.10;;;4.18;;
69226;SDS011;56334;52.398;7.552;2023-04-24T08:29:59;12.15;;;4.93;;
69226;SDS011;56334;52.398;7.552;2023-04-24T08:32:25;11.80;;;4.72;;
69226;SDS011;56334;52.398;7.552;2023-04-24T08:34:57;10.68;;;4.38;;
69226;SDS011;56334;52.398;7.552;2023-04-24T08:37:25;9.48;;;3.60;;
69226;SDS011;56334;52.398;7.552;2023-04-24T08:39:51;7.95;;;3.50;;
69226;SDS011;56334;52.398;7.552;2023-04-24T08:42:18;12.75;;;4.60;;
69226;SDS011;56334;52.398;7.552;2023-04-24T08:44:44;11.32;;;4.80;;
69226;SDS011;56334;52.398;7.552;2023-04-24T08:47:11;12.00;;;5.20;;
69226;SDS011;56334;52.398;7.552;2023-04-24T08:49:37;11.75;;;5.00;;
69226;SDS011;56334;52.398;7.552;2023-04-24T08:52:07;12.30;;;4.53;;
69226;SDS011;56334;52.398;7.552;2023-04-24T08:54:34;12.25;;;5.38;;
69226;SDS011;56334;52.398;7.552;2023-04-24T08:57:01;11.80;;;4.47;;
69226;SDS011;56334;52.398;7.552;2023-04-24T08:59:29;13.80;;;5.50;;
69226;SDS011;56334;52.398;7.552;2023-04-24T09:01:56;13.45;;;5.15;;
69226;SDS011;56334;52.398;7.552;2023-04-24T09:04:22;11.75;;;5.43;;
69226;SDS011;56334;52.398;7.552;2023-04-24T09:06:56;12.13;;;4.30;;
69226;SDS011;56334;52.398;7.552;2023-04-24T09:09:23;10.98;;;4.55;;
69226;SDS011;56334;52.398;7.552;2023-04-24T09:11:49;12.68;;;5.03;;
69226;SDS011;56334;52.398;7.552;2023-04-24T09:14:16;12.82;;;4.97;;
69226;SDS011;56334;52.398;7.552;2023-04-24T09:16:42;11.63;;;4.63;;
69226;SDS011;56334;52.398;7.552;2023-04-24T09:19:09;11.13;;;3.63;;
69226;SDS011;56334;52.398;7.552;2023-04-24T09:21:35;11.73;;;4.53;;
69226;SDS011;56334;52.398;7.552;2023-04-24T09:24:02;12.88;;;4.70;;
69226;SDS011;56334;52.398;7.552;2023-04-24T09:26:29;13.68;;;5.30;;
69226;SDS011;56334;52.398;7.552;2023-04-24T09:28:57;11.15;;;4.85;;
69226;SDS011;56334;52.398;7.552;2023-04-24T09:31:23;13.18;;;4.93;;
69226;SDS011;56334;52.398;7.552;2023-04-24T09:33:53;9.50;;;4.10;;
69226;SDS011;56334;52.398;7.552;2023-04-24T09:36:26;9.63;;;3.67;;
69226;SDS011;56334;52.398;7.552;2023-04-24T09:38:53;7.45;;;2.60;;
69226;SDS011;56334;52.398;7.552;2023-04-24T09:41:23;8.85;;;3.42;;
69226;SDS011;56334;52.398;7.552;2023-04-24T09:43:49;8.70;;;2.92;;
69226;SDS011;56334;52.398;7.552;2023-04-24T09:46:16;8.55;;;2.95;;
69226;SDS011;56334;52.398;7.552;2023-04-24T09:48:44;10.43;;;3.85;;
69226;SDS011;56334;52.398;7.552;2023-04-24T09:51:10;9.65;;;3.42;;
69226;SDS011;56334;52.398;7.552;2023-04-24T09:53:36;9.02;;;2.92;;
69226;SDS011;56334;52.398;7.552;2023-04-24T09:56:09;9.18;;;2.75;;
69226;SDS011;56334;52.398;7.552;2023-04-24T09:58:37;8.70;;;3.05;;
69226;SDS011;56334;52.398;7.552;2023-04-24T10:01:03;10.68;;;3.38;;
69226;SDS011;56334;52.398;7.552;2023-04-24T10:03:30;8.77;;;2.90;;
69226;SDS011;56334;52.398;7.552;2023-04-24T10:05:59;9.18;;;2.72;;
69226;SDS011;56334;52.398;7.552;2023-04-24T10:08:26;8.27;;;2.97;;
69226;SDS011;56334;52.398;7.552;2023-04-24T10:10:52;6.85;;;2.20;;
69226;SDS011;56334;52.398;7.552;2023-04-24T10:13:18;8.00;;;2.83;;
69226;SDS011;56334;52.398;7.552;2023-04-24T10:15:44;7.95;;;2.53;;
69226;SDS011;56334;52.398;7.552;2023-04-24T10:18:13;9.88;;;3.15;;
69226;SDS011;56334;52.398;7.552;2023-04-24T10:20:39;6.63;;;2.28;;
69226;SDS011;56334;52.398;7.552;2023-04-24T10:23:07;9.50;;;2.58;;
69226;SDS011;56334;52.398;7.552;2023-04-24T10:25:34;6.57;;;2.05;;
69226;SDS011;56334;52.398;7.552;2023-04-24T10:30:27;9.23;;;2.90;;
69226;SDS011;56334;52.398;7.552;2023-04-24T10:32:53;8.65;;;2.80;;
69226;SDS011;56334;52.398;7.552;2023-04-24T10:35:19;8.20;;;2.50;;
69226;SDS011;56334;52.398;7.552;2023-04-24T10:38:04;9.85;;;2.60;;
69226;SDS011;56334;52.398;7.552;2023-04-24T10:40:32;9.07;;;2.42;;
69226;SDS011;56334;52.398;7.552;2023-04-24T10:42:58;7.03;;;2.47;;
69226;SDS011;56334;52.398;7.552;2023-04-24T10:45:24;11.10;;;3.47;;
69226;SDS011;56334;52.398;7.552;2023-04-24T10:47:51;12.20;;;3.47;;
69226;SDS011;56334;52.398;7.552;2023-04-24T10:50:17;15.43;;;5.55;;
69226;SDS011;56334;52.398;7.552;2023-04-24T10:52:44;17.42;;;7.28;;
69226;SDS011;56334;52.398;7.552;2023-04-24T10:55:12;19.23;;;7.43;;
69226;SDS011;56334;52.398;7.552;2023-04-24T10:57:38;19.75;;;8.07;;
69226;SDS011;56334;52.398;7.552;2023-04-24T11:00:15;18.13;;;7.13;;
69226;SDS011;56334;52.398;7.552;2023-04-24T11:02:41;20.15;;;8.27;;
69226;SDS011;56334;52.398;7.552;2023-04-24T11:05:17;18.45;;;7.65;;
69226;SDS011;56334;52.398;7.552;2023-04-24T11:10:28;21.35;;;7.03;;
69226;SDS011;56334;52.398;7.552;2023-04-24T11:12:54;16.52;;;6.28;;
69226;SDS011;56334;52.398;7.552;2023-04-24T11:15:20;14.20;;;5.45;;
69226;SDS011;56334;52.398;7.552;2023-04-24T11:17:46;14.95;;;5.15;;
69226;SDS011;56334;52.398;7.552;2023-04-24T11:20:16;16.80;;;6.72;;
69226;SDS011;56334;52.398;7.552;2023-04-24T11:22:42;16.23;;;6.32;;
69226;SDS011;56334;52.398;7.552;2023-04-24T11:25:09;17.80;;;7.22;;
69226;SDS011;56334;52.398;7.552;2023-04-24T11:27:40;15.85;;;5.70;;
69226;SDS011;56334;52.398;7.552;2023-04-24T11:30:07;16.95;;;6.28;;
69226;SDS011;56334;52.398;7.552;2023-04-24T11:35:04;17.67;;;6.35;;
69226;SDS011;56334;52.398;7.552;2023-04-24T11:37:39;12.98;;;5.35;;
69226;SDS011;56334;52.398;7.552;2023-04-24T11:40:06;17.60;;;6.95;;
69226;SDS011;56334;52.398;7.552;2023-04-24T11:42:36;16.20;;;6.47;;
69226;SDS011;56334;52.398;7.552;2023-04-24T11:45:02;15.23;;;6.50;;
69226;SDS011;56334;52.398;7.552;2023-04-24T11:47:33;14.52;;;5.55;;
69226;SDS011;56334;52.398;7.552;2023-04-24T11:49:59;12.95;;;4.18;;
69226;SDS011;56334;52.398;7.552;2023-04-24T11:52:25;8.98;;;3.25;;
69226;SDS011;56334;52.398;7.552;2023-04-24T11:54:52;10.07;;;3.10;;
69226;SDS011;56334;52.398;7.552;2023-04-24T11:57:22;11.95;;;4.35;;
69226;SDS011;56334;52.398;7.552;2023-04-24T11:59:48;7.30;;;2.28;;
69226;SDS011;56334;52.398;7.552;2023-04-24T12:02:24;9.07;;;3.03;;
69226;SDS011;56334;52.398;7.552;2023-04-24T12:04:51;10.35;;;3.08;;
69226;SDS011;56334;52.398;7.552;2023-04-24T12:07:17;10.25;;;2.90;;
69226;SDS011;56334;52.398;7.552;2023-04-24T12:09:47;12.25;;;3.97;;
69226;SDS011;56334;52.398;7.552;2023-04-24T12:12:14;12.95;;;3.58;;
69226;SDS011;56334;52.398;7.552;2023-04-24T12:14:44;11.40;;;2.97;;
69226;SDS011;56334;52.398;7.552;2023-04-24T12:17:10;11.40;;;3.05;;
69226;SDS011;56334;52.398;7.552;2023-04-24T12:19:36;11.88;;;3.15;;
69226;SDS011;56334;52.398;7.552;2023-04-24T12:22:03;10.07;;;2.58;;
69226;SDS011;56334;52.398;7.552;2023-04-24T12:24:31;12.77;;;3.88;;
69226;SDS011;56334;52.398;7.552;2023-04-24T12:26:58;13.20;;;3.67;;
69226;SDS011;56334;52.398;7.552;2023-04-24T12:29:26;12.85;;;3.63;;
69226;SDS011;56334;52.398;7.552;2023-04-24T12:31:52;11.35;;;3.47;;
69226;SDS011;56334;52.398;7.552;2023-04-24T12:34:22;13.55;;;3.70;;
69226;SDS011;56334;52.398;7.552;2023-04-24T12:36:48;10.35;;;3.25;;
69226;SDS011;56334;52.398;7.552;2023-04-24T12:39:17;12.85;;;3.67;;
69226;SDS011;56334;52.398;7.552;2023-04-24T12:41:56;12.20;;;3.35;;
69226;SDS011;56334;52.398;7.552;2023-04-24T12:44:32;14.05;;;4.18;;
69226;SDS011;56334;52.398;7.552;2023-04-24T12:47:00;9.98;;;3.10;;
69226;SDS011;56334;52.398;7.552;2023-04-24T12:49:26;15.60;;;3.83;;
69226;SDS011;56334;52.398;7.552;2023-04-24T12:51:52;11.23;;;3.13;;
69226;SDS011;56334;52.398;7.552;2023-04-24T12:54:18;10.00;;;2.95;;
69226;SDS011;56334;52.398;7.552;2023-04-24T12:56:44;14.13;;;4.30;;
69226;SDS011;56334;52.398;7.552;2023-04-24T12:59:10;10.90;;;3.92;;
69226;SDS011;56334;52.398;7.552;2023-04-24T13:01:36;12.70;;;4.28;;
69226;SDS011;56334;52.398;7.552;2023-04-24T13:04:04;8.70;;;2.95;;
69226;SDS011;56334;52.398;7.552;2023-04-24T13:06:31;12.20;;;3.55;;
69226;SDS011;56334;52.398;7.552;2023-04-24T13:08:57;11.68;;;3.22;;
69226;SDS011;56334;52.398;7.552;2023-04-24T13:11:23;12.40;;;3.60;;
69226;SDS011;56334;52.398;7.552;2023-04-24T13:13:50;11.95;;;3.58;;
69226;SDS011;56334;52.398;7.552;2023-04-24T13:16:16;11.13;;;3.08;;
69226;SDS011;56334;52.398;7.552;2023-04-24T13:18:42;10.27;;;2.88;;
69226;SDS011;56334;52.398;7.552;2023-04-24T13:21:08;8.18;;;2.63;;
69226;SDS011;56334;52.398;7.552;2023-04-24T13:23:34;8.93;;;2.70;;
69226;SDS011;56334;52.398;7.552;2023-04-24T13:26:00;10.43;;;3.00;;
69226;SDS011;56334;52.398;7.552;2023-04-24T13:28:27;7.93;;;2.47;;
69226;SDS011;56334;52.398;7.552;2023-04-24T13:33:20;7.75;;;2.10;;
69226;SDS011;56334;52.398;7.552;2023-04-24T13:35:46;9.50;;;2.30;;
69226;SDS011;56334;52.398;7.552;2023-04-24T13:38:12;7.10;;;2.30;;
69226;SDS011;56334;52.398;7.552;2023-04-24T13:40:38;8.80;;;2.40;;
69226;SDS011;56334;52.398;7.552;2023-04-24T13:43:08;8.98;;;2.40;;
69226;SDS011;56334;52.398;7.552;2023-04-24T13:45:34;8.27;;;2.20;;
69226;SDS011;56334;52.398;7.552;2023-04-24T13:48:00;9.50;;;2.00;;
69226;SDS011;56334;52.398;7.552;2023-04-24T13:50:27;7.38;;;1.90;;
69226;SDS011;56334;52.398;7.552;2023-04-24T13:52:54;7.13;;;1.83;;
69226;SDS011;56334;52.398;7.552;2023-04-24T13:55:21;5.63;;;1.40;;
69226;SDS011;56334;52.398;7.552;2023-04-24T13:57:47;6.63;;;1.60;;
69226;SDS011;56334;52.398;7.552;2023-04-24T14:00:14;7.72;;;2.00;;
69226;SDS011;56334;52.398;7.552;2023-04-24T14:02:40;7.68;;;2.47;;
69226;SDS011;56334;52.398;7.552;2023-04-24T14:05:07;6.65;;;1.60;;
69226;SDS011;56334;52.398;7.552;2023-04-24T14:07:33;7.03;;;1.70;;
69226;SDS011;56334;52.398;7.552;2023-04-24T14:09:59;6.43;;;1.52;;
69226;SDS011;56334;52.398;7.552;2023-04-24T14:12:25;9.88;;;2.20;;
69226;SDS011;56334;52.398;7.552;2023-04-24T14:14:52;6.38;;;1.50;;
69226;SDS011;56334;52.398;7.552;2023-04-24T14:17:18;8.38;;;2.22;;
69226;SDS011;56334;52.398;7.552;2023-04-24T14:19:44;8.55;;;2.33;;
69226;SDS011;56334;52.398;7.552;2023-04-24T14:22:10;4.97;;;1.50;;
69226;SDS011;56334;52.398;7.552;2023-04-24T14:24:37;7.63;;;1.77;;
69226;SDS011;56334;52.398;7.552;2023-04-24T14:27:04;7.85;;;1.75;;
69226;SDS011;56334;52.398;7.552;2023-04-24T14:29:32;7.40;;;2.03;;
69226;SDS011;56334;52.398;7.552;2023-04-24T14:31:58;8.27;;;2.35;;
69226;SDS011;56334;52.398;7.552;2023-04-24T14:34:25;8.82;;;2.40;;
69226;SDS011;56334;52.398;7.552;2023-04-24T14:36:52;6.38;;;1.63;;
69226;SDS011;56334;52.398;7.552;2023-04-24T14:39:18;8.40;;;2.25;;
69226;SDS011;56334;52.398;7.552;2023-04-24T14:41:45;8.23;;;2.10;;
69226;SDS011;56334;52.398;7.552;2023-04-24T14:44:11;9.35;;;2.38;;
69226;SDS011;56334;52.398;7.552;2023-04-24T14:46:37;6.47;;;1.90;;
69226;SDS011;56334;52.398;7.552;2023-04-24T14:49:03;7.35;;;1.98;;
69226;SDS011;56334;52.398;7.552;2023-04-24T14:51:30;8.43;;;1.83;;
69226;SDS011;56334;52.398;7.552;2023-04-24T14:53:56;6.78;;;1.73;;
69226;SDS011;56334;52.398;7.552;2023-04-24T14:56:22;7.05;;;1.92;;
69226;SDS011;56334;52.398;7.552;2023-04-24T14:58:48;10.75;;;2.00;;
69226;SDS011;56334;52.398;7.552;2023-04-24T15:01:14;7.35;;;1.60;;